createdAt,value
2018-03-12T00:00:00.458Z,10.40
2018-03-12T00:02:28.003Z,10.30
2018-03-12T00:04:55.531Z,10.30
2018-03-12T00:07:23.009Z,10.40
2018-03-12T00:09:50.468Z,10.40
2018-03-12T00:12:17.953Z,10.40
2018-03-12T00:14:45.427Z,10.30
2018-03-12T00:17:12.881Z,10.30
2018-03-12T00:19:40.347Z,10.30
2018-03-12T00:22:08.586Z,10.20
2018-03-12T00:24:36.050Z,10.20
2018-03-12T00:27:03.529Z,10.20
2018-03-12T00:29:31.000Z,10.20
2018-03-12T00:31:59.236Z,10.20
2018-03-12T00:34:26.693Z,10.20
2018-03-12T00:36:54.173Z,10.10
2018-03-12T00:39:22.529Z,10.10
2018-03-12T00:41:50.062Z,10.10
2018-03-12T00:44:17.623Z,10.10
2018-03-12T00:46:45.219Z,10.10
2018-03-12T00:49:12.704Z,10.00
2018-03-12T00:51:40.985Z,10.00
2018-03-12T00:54:09.421Z,10.00
2018-03-12T00:56:36.915Z,10.00
2018-03-12T00:59:05.149Z,10.00
2018-03-12T01:01:32.618Z,9.90
2018-03-12T01:04:00.098Z,10.00
2018-03-12T01:06:28.329Z,9.90
2018-03-12T01:08:55.825Z,9.90
2018-03-12T01:11:24.140Z,9.90
2018-03-12T01:13:51.581Z,9.90
2018-03-12T01:16:19.049Z,9.90
2018-03-12T01:18:46.506Z,10.00
2018-03-12T01:21:13.988Z,10.10
2018-03-12T01:23:41.585Z,9.90
2018-03-12T01:26:09.055Z,9.90
2018-03-12T01:28:37.290Z,9.90
2018-03-12T01:31:04.777Z,9.90
2018-03-12T01:33:32.237Z,9.90
2018-03-12T01:36:00.925Z,9.80
2018-03-12T01:38:28.383Z,9.80
2018-03-12T01:40:56.602Z,9.90
2018-03-12T01:43:24.183Z,9.90
2018-03-12T01:45:51.723Z,9.90
2018-03-12T01:48:19.346Z,9.80
2018-03-12T01:50:47.566Z,9.80
2018-03-12T01:53:15.161Z,9.70
2018-03-12T01:55:43.744Z,9.70
2018-03-12T01:58:11.215Z,9.70
2018-03-12T02:00:39.527Z,9.80
2018-03-12T02:03:06.998Z,9.70
2018-03-12T02:05:34.453Z,9.80
2018-03-12T02:08:02.037Z,9.70
2018-03-12T02:10:29.553Z,9.70
2018-03-12T02:12:57.185Z,9.70
2018-03-12T02:15:25.401Z,9.70
2018-03-12T02:17:52.860Z,9.70
2018-03-12T02:20:20.372Z,9.70
2018-03-12T02:22:47.792Z,9.70
2018-03-12T02:25:15.269Z,9.70
2018-03-12T02:27:42.795Z,9.80
2018-03-12T02:30:10.305Z,9.70
2018-03-12T02:32:38.532Z,9.80
2018-03-12T02:35:06.009Z,9.70
2018-03-12T02:37:33.474Z,9.70
2018-03-12T02:40:00.946Z,9.70
2018-03-12T02:42:29.194Z,9.70
2018-03-12T02:44:56.689Z,9.70
2018-03-12T02:47:24.162Z,9.70
2018-03-12T02:49:51.638Z,9.60
2018-03-12T02:52:19.099Z,9.70
2018-03-12T02:54:46.557Z,9.70
2018-03-12T02:57:14.056Z,9.70
2018-03-12T02:59:41.531Z,9.70
2018-03-12T03:02:09.764Z,9.70
2018-03-12T03:04:37.219Z,9.60
2018-03-12T03:07:04.698Z,9.60
2018-03-12T03:09:32.154Z,9.70
2018-03-12T03:11:59.621Z,9.60
2018-03-12T03:14:27.901Z,9.60
2018-03-12T03:16:56.233Z,9.70
2018-03-12T03:19:23.827Z,9.70
2018-03-12T03:21:51.301Z,9.80
2018-03-12T03:24:19.549Z,9.80
2018-03-12T03:26:47.027Z,9.80
2018-03-12T03:29:15.241Z,9.80
2018-03-12T03:31:42.748Z,9.80
2018-03-12T03:34:10.220Z,9.80
2018-03-12T03:36:38.458Z,9.90
2018-03-12T03:39:05.929Z,9.90
2018-03-12T03:41:33.406Z,9.90
2018-03-12T03:44:01.638Z,10.00
2018-03-12T03:46:29.098Z,10.00
2018-03-12T03:48:56.582Z,10.00
2018-03-12T03:51:24.029Z,9.90
2018-03-12T03:53:51.901Z,9.80
2018-03-12T03:56:19.365Z,9.80
2018-03-12T03:58:47.599Z,10.00
2018-03-12T04:01:15.245Z,10.00
2018-03-12T04:03:42.710Z,10.10
2018-03-12T04:06:10.163Z,10.00
2018-03-12T04:08:37.642Z,10.00
2018-03-12T04:11:05.101Z,9.90
2018-03-12T04:13:33.065Z,9.90
2018-03-12T04:16:00.735Z,9.90
2018-03-12T04:18:28.261Z,9.80
2018-03-12T04:20:56.586Z,9.80
2018-03-12T04:23:24.046Z,9.70
2018-03-12T04:25:51.524Z,9.70
2018-03-12T04:28:19.761Z,9.70
2018-03-12T04:30:47.231Z,9.70
2018-03-12T04:33:14.708Z,9.80
2018-03-12T04:35:42.944Z,9.70
2018-03-12T04:38:10.417Z,9.80
2018-03-12T04:40:37.881Z,9.80
2018-03-12T04:43:05.342Z,9.90
2018-03-12T04:45:32.801Z,9.90
2018-03-12T04:48:01.033Z,10.00
2018-03-12T04:50:28.576Z,10.00
2018-03-12T04:52:56.662Z,9.90
2018-03-12T04:55:24.129Z,9.90
2018-03-12T04:57:51.752Z,9.90
2018-03-12T05:00:19.225Z,9.80
2018-03-12T05:02:46.921Z,9.80
2018-03-12T05:05:14.442Z,9.70
2018-03-12T05:07:42.042Z,9.70
2018-03-12T05:10:09.674Z,9.70
2018-03-12T05:12:37.262Z,9.60
2018-03-12T05:15:04.729Z,9.60
2018-03-12T05:17:32.201Z,9.50
2018-03-12T05:20:00.428Z,9.60
2018-03-12T05:22:27.879Z,9.60
2018-03-12T05:24:55.348Z,9.70
2018-03-12T05:27:22.839Z,9.80
2018-03-12T05:29:50.309Z,9.80
2018-03-12T05:32:19.376Z,9.80
2018-03-12T05:34:46.848Z,9.80
2018-03-12T05:37:15.525Z,9.60
2018-03-12T05:39:42.996Z,9.60
2018-03-12T05:42:11.218Z,9.40
2018-03-12T05:44:38.701Z,9.40
2018-03-12T05:47:06.154Z,9.40
2018-03-12T05:49:34.349Z,9.40
2018-03-12T05:52:03.309Z,9.60
2018-03-12T05:54:30.796Z,9.50
2018-03-12T05:56:58.877Z,9.40
2018-03-12T05:59:27.106Z,9.50
2018-03-12T06:01:54.588Z,9.50
2018-03-12T06:04:22.055Z,9.60
2018-03-12T06:06:50.313Z,9.60
2018-03-12T06:09:17.769Z,9.60
2018-03-12T06:11:45.251Z,9.60
2018-03-12T06:14:12.901Z,9.50
2018-03-12T06:16:40.404Z,9.70
2018-03-12T06:19:07.989Z,9.60
2018-03-12T06:21:35.581Z,9.60
2018-03-12T06:24:03.239Z,9.60
2018-03-12T06:26:30.765Z,9.60
2018-03-12T06:28:58.461Z,9.60
2018-03-12T06:31:26.770Z,9.70
2018-03-12T06:33:54.254Z,9.70
2018-03-12T06:36:21.739Z,9.70
2018-03-12T06:38:49.220Z,9.60
2018-03-12T06:41:16.684Z,9.60
2018-03-12T06:43:44.142Z,9.60
2018-03-12T06:46:12.401Z,9.60
2018-03-12T06:48:39.849Z,9.60
2018-03-12T06:51:08.854Z,9.80
2018-03-12T06:53:37.105Z,9.80
2018-03-12T06:56:04.673Z,9.80
2018-03-12T06:58:32.141Z,9.70
2018-03-12T07:00:59.765Z,9.70
2018-03-12T07:03:27.242Z,9.70
2018-03-12T07:05:54.715Z,9.70
2018-03-12T07:08:22.176Z,9.70
2018-03-12T07:10:50.416Z,9.60
2018-03-12T07:13:17.888Z,9.60
2018-03-12T07:15:45.448Z,9.70
2018-03-12T07:18:12.955Z,9.60
2018-03-12T07:20:40.432Z,9.70
2018-03-12T07:23:07.925Z,9.70
2018-03-12T07:25:35.387Z,9.70
2018-03-12T07:28:04.675Z,9.80
2018-03-12T07:30:32.737Z,9.80
2018-03-12T07:33:00.304Z,9.80
2018-03-12T07:35:27.852Z,9.70
2018-03-12T07:37:55.317Z,9.70
2018-03-12T07:40:22.777Z,9.70
2018-03-12T07:42:50.255Z,9.90
2018-03-12T07:45:18.596Z,10.20
2018-03-12T07:47:46.078Z,10.20
2018-03-12T07:50:13.546Z,10.10
2018-03-12T07:52:41.017Z,10.10
2018-03-12T07:55:09.267Z,10.10
2018-03-12T07:57:36.759Z,10.10
2018-03-12T08:00:05.376Z,10.10
2018-03-12T08:02:33.068Z,10.10
2018-03-12T08:05:00.543Z,10.10
2018-03-12T08:07:28.014Z,10.20
2018-03-12T08:09:56.314Z,10.20
2018-03-12T08:12:23.850Z,10.20
2018-03-12T08:14:52.090Z,10.40
2018-03-12T08:17:19.602Z,10.40
2018-03-12T08:19:47.075Z,10.30
2018-03-12T08:22:14.605Z,10.40
2018-03-12T08:24:43.033Z,10.50
2018-03-12T08:27:10.614Z,10.50
2018-03-12T08:29:38.113Z,10.50
2018-03-12T08:32:05.574Z,10.50
2018-03-12T08:34:33.057Z,10.50
2018-03-12T08:37:00.706Z,10.60
2018-03-12T08:39:28.190Z,10.60
2018-03-12T08:41:55.833Z,10.70
2018-03-12T08:44:23.329Z,10.70
2018-03-12T08:46:50.936Z,10.80
2018-03-12T08:49:18.431Z,10.90
2018-03-12T08:51:45.909Z,10.90
2018-03-12T08:54:14.149Z,11.10
2018-03-12T08:56:41.734Z,11.10
2018-03-12T08:59:09.302Z,11.20
2018-03-12T09:01:37.553Z,11.20
2018-03-12T09:04:05.027Z,11.20
2018-03-12T09:06:32.506Z,11.30
2018-03-12T09:09:00.729Z,11.70
2018-03-12T09:11:28.222Z,11.60
2018-03-12T09:13:55.849Z,11.60
2018-03-12T09:16:23.800Z,11.60
2018-03-12T09:18:51.267Z,11.60
2018-03-12T09:21:18.737Z,11.70
2018-03-12T09:23:46.220Z,11.60
2018-03-12T09:26:13.720Z,11.50
2018-03-12T09:28:41.180Z,11.40
2018-03-12T09:31:09.449Z,11.40
2018-03-12T09:33:36.929Z,11.40
2018-03-12T09:36:04.408Z,11.40
2018-03-12T09:38:31.872Z,11.40
2018-03-12T09:40:59.342Z,11.50
2018-03-12T09:43:26.824Z,11.70
2018-03-12T09:45:55.097Z,12.00
2018-03-12T09:48:22.605Z,11.90
2018-03-12T09:50:50.193Z,12.20
2018-03-12T09:53:17.664Z,12.40
2018-03-12T09:55:45.994Z,12.60
2018-03-12T09:58:13.459Z,12.60
2018-03-12T10:00:41.045Z,12.70
2018-03-12T10:03:09.374Z,12.70
2018-03-12T10:05:36.863Z,12.70
2018-03-12T10:08:04.334Z,12.60
2018-03-12T10:10:32.004Z,12.60
2018-03-12T10:13:00.229Z,12.50
2018-03-12T10:15:27.713Z,12.50
2018-03-12T10:17:56.028Z,12.50
2018-03-12T10:20:24.261Z,12.60
2018-03-12T10:22:51.730Z,12.50
2018-03-12T10:25:19.971Z,12.60
2018-03-12T10:27:47.432Z,12.60
2018-03-12T10:30:15.002Z,12.70
2018-03-12T10:32:42.526Z,12.80
2018-03-12T10:35:10.047Z,12.90
2018-03-12T10:37:37.733Z,12.90
2018-03-12T10:40:05.210Z,13.00
2018-03-12T10:42:32.768Z,13.20
2018-03-12T10:45:00.232Z,13.50
2018-03-12T10:47:27.710Z,13.80
2018-03-12T10:49:55.180Z,14.10
2018-03-12T10:52:22.646Z,14.30
2018-03-12T10:54:50.112Z,14.50
2018-03-12T10:57:17.585Z,14.60
2018-03-12T10:59:45.070Z,14.40
2018-03-12T11:02:12.544Z,14.00
2018-03-12T11:04:40.038Z,13.90
2018-03-12T11:07:11.247Z,14.40
2018-03-12T11:09:38.741Z,14.40
2018-03-12T11:12:06.206Z,14.60
2018-03-12T11:14:34.454Z,14.60
2018-03-12T11:17:02.068Z,14.60
2018-03-12T11:19:29.617Z,14.50
2018-03-12T11:21:57.976Z,14.50
2018-03-12T11:24:25.458Z,14.50
2018-03-12T11:26:52.985Z,14.60
2018-03-12T11:29:20.507Z,14.70
2018-03-12T11:31:48.029Z,14.80
2018-03-12T11:34:16.347Z,14.80
2018-03-12T11:36:43.968Z,14.80
2018-03-12T11:39:11.530Z,14.80
2018-03-12T11:41:39.070Z,14.90
2018-03-12T11:44:06.636Z,15.10
2018-03-12T11:46:34.177Z,15.50
2018-03-12T11:49:01.978Z,15.70
2018-03-12T11:51:30.306Z,16.00
2018-03-12T11:53:59.290Z,16.00
2018-03-12T11:56:26.779Z,16.00
2018-03-12T11:58:55.034Z,15.70
2018-03-12T12:01:23.281Z,15.50
2018-03-12T12:03:51.396Z,15.50
2018-03-12T12:06:19.664Z,15.10
2018-03-12T12:08:47.949Z,15.00
2018-03-12T12:11:16.360Z,14.80
2018-03-12T12:13:43.843Z,14.80
2018-03-12T12:16:11.355Z,14.70
2018-03-12T12:18:38.956Z,14.70
2018-03-12T12:21:06.546Z,14.60
2018-03-12T12:23:34.381Z,14.50
2018-03-12T12:26:01.882Z,14.50
2018-03-12T12:28:29.393Z,14.50
2018-03-12T12:30:56.890Z,14.60
2018-03-12T12:33:24.366Z,14.60
2018-03-12T12:35:52.647Z,14.70
2018-03-12T12:38:21.616Z,14.70
2018-03-12T12:40:49.894Z,14.70
2018-03-12T12:43:18.164Z,14.60
2018-03-12T12:45:45.645Z,14.60
2018-03-12T12:48:13.214Z,14.60
2018-03-12T12:50:40.815Z,14.70
2018-03-12T12:53:08.309Z,14.70
2018-03-12T12:55:36.566Z,14.80
2018-03-12T12:58:04.843Z,14.70
2018-03-12T13:00:32.423Z,14.70
2018-03-12T13:03:00.748Z,14.60
2018-03-12T13:05:28.281Z,14.60
2018-03-12T13:07:55.762Z,14.40
2018-03-12T13:10:24.000Z,14.30
2018-03-12T13:12:52.288Z,14.20
2018-03-12T13:15:19.776Z,14.20
2018-03-12T13:17:47.433Z,14.10
2018-03-12T13:20:15.027Z,14.20
2018-03-12T13:22:42.647Z,14.40
2018-03-12T13:25:10.241Z,14.90
2018-03-12T13:27:38.536Z,15.90
2018-03-12T13:30:06.057Z,15.80
2018-03-12T13:32:33.569Z,16.10
2018-03-12T13:35:01.071Z,16.00
2018-03-12T13:37:28.605Z,16.00
2018-03-12T13:39:56.097Z,15.60
2018-03-12T13:42:23.640Z,15.40
2018-03-12T13:44:51.187Z,15.30
2018-03-12T13:47:18.837Z,15.10
2018-03-12T13:49:46.330Z,14.90
2018-03-12T13:52:13.831Z,14.70
2018-03-12T13:54:42.186Z,14.60
2018-03-12T13:57:10.478Z,14.60
2018-03-12T13:59:38.928Z,14.60
2018-03-12T14:02:06.469Z,14.70
2018-03-12T14:04:33.955Z,14.70
2018-03-12T14:07:01.432Z,14.80
2018-03-12T14:09:30.025Z,15.00
2018-03-12T14:11:58.254Z,15.20
2018-03-12T14:14:25.736Z,15.20
2018-03-12T14:16:54.777Z,15.00
2018-03-12T14:19:22.387Z,15.00
2018-03-12T14:21:50.618Z,14.90
2018-03-12T14:24:18.123Z,14.90
2018-03-12T14:26:45.581Z,14.90
2018-03-12T14:29:13.079Z,15.00
2018-03-12T14:31:40.551Z,15.00
2018-03-12T14:34:08.026Z,15.20
2018-03-12T14:36:35.483Z,15.40
2018-03-12T14:39:03.162Z,15.60
2018-03-12T14:41:31.393Z,15.60
2018-03-12T14:43:58.865Z,15.60
2018-03-12T14:46:26.317Z,15.60
2018-03-12T14:48:53.789Z,15.40
2018-03-12T14:51:21.270Z,15.20
2018-03-12T14:53:48.750Z,15.00
2018-03-12T14:56:16.993Z,14.70
2018-03-12T14:58:44.462Z,14.70
2018-03-12T15:01:11.995Z,14.70
2018-03-12T15:03:39.421Z,14.60
2018-03-12T15:06:06.894Z,14.60
2018-03-12T15:08:34.387Z,14.50
2018-03-12T15:11:02.652Z,13.60
2018-03-12T15:13:30.117Z,13.60
2018-03-12T15:15:58.453Z,12.90
2018-03-12T15:18:25.959Z,12.70
2018-03-12T15:20:54.385Z,12.60
2018-03-12T15:23:21.855Z,12.60
2018-03-12T15:25:49.429Z,12.60
2018-03-12T15:28:16.918Z,12.80
2018-03-12T15:30:45.147Z,12.90
2018-03-12T15:33:12.622Z,12.90
2018-03-12T15:35:40.106Z,13.00
2018-03-12T15:38:08.348Z,13.10
2018-03-12T15:40:35.831Z,13.10
2018-03-12T15:43:03.386Z,13.20
2018-03-12T15:45:31.000Z,13.30
2018-03-12T15:47:58.482Z,13.40
2018-03-12T15:50:25.967Z,13.30
2018-03-12T15:52:53.438Z,13.40
2018-03-12T15:55:21.672Z,13.40
2018-03-12T15:57:49.145Z,13.40
2018-03-12T16:00:16.621Z,13.40
2018-03-12T16:02:44.905Z,13.30
2018-03-12T16:05:13.140Z,13.30
2018-03-12T16:07:40.607Z,13.20
2018-03-12T16:10:08.238Z,13.20
2018-03-12T16:12:35.880Z,13.20
2018-03-12T16:15:03.364Z,13.20
2018-03-12T16:17:30.821Z,13.30
2018-03-12T16:19:59.293Z,13.30
2018-03-12T16:22:26.840Z,13.20
2018-03-12T16:24:54.371Z,13.20
2018-03-12T16:27:22.661Z,13.20
2018-03-12T16:29:50.180Z,13.20
2018-03-12T16:32:17.693Z,13.10
2018-03-12T16:34:45.160Z,13.00
2018-03-12T16:37:12.651Z,13.00
2018-03-12T16:39:40.250Z,13.00
2018-03-12T16:42:07.796Z,13.00
2018-03-12T16:44:36.073Z,13.00
2018-03-12T16:47:05.224Z,13.00
2018-03-12T16:49:32.964Z,13.00
2018-03-12T16:52:00.776Z,13.00
2018-03-12T16:54:33.290Z,13.00
2018-03-12T16:56:56.493Z,13.00
2018-03-12T16:59:23.957Z,13.00
2018-03-12T17:01:51.453Z,12.90
2018-03-12T17:04:18.929Z,12.90
2018-03-12T17:06:46.428Z,12.80
2018-03-12T17:09:13.952Z,12.80
2018-03-12T17:11:41.457Z,12.70
2018-03-12T17:14:09.809Z,12.70
2018-03-12T17:16:37.241Z,12.70
2018-03-12T17:19:04.748Z,12.70
2018-03-12T17:21:32.205Z,12.70
2018-03-12T17:24:00.453Z,12.70
2018-03-12T17:26:27.942Z,12.70
2018-03-12T17:28:56.201Z,12.60
2018-03-12T17:31:23.670Z,12.60
2018-03-12T17:33:51.921Z,12.60
2018-03-12T17:36:19.419Z,12.50
2018-03-12T17:38:47.676Z,12.50
2018-03-12T17:41:16.668Z,12.50
2018-03-12T17:43:44.150Z,12.50
2018-03-12T17:46:12.520Z,12.40
2018-03-12T17:48:40.992Z,12.50
2018-03-12T17:51:09.233Z,12.40
2018-03-12T17:53:36.794Z,12.40
2018-03-12T17:56:04.299Z,12.40
2018-03-12T17:58:32.522Z,12.40
2018-03-12T18:01:00.598Z,12.40
2018-03-12T18:03:28.083Z,12.40
2018-03-12T18:05:55.569Z,12.40
2018-03-12T18:08:23.029Z,12.40
2018-03-12T18:10:50.546Z,12.40
2018-03-12T18:13:18.163Z,12.30
2018-03-12T18:15:45.719Z,12.30
2018-03-12T18:18:13.302Z,12.30
2018-03-12T18:20:41.311Z,12.30
2018-03-12T18:23:10.511Z,12.10
2018-03-12T18:25:39.161Z,12.00
2018-03-12T18:28:07.557Z,12.00
2018-03-12T18:30:35.845Z,12.00
2018-03-12T18:33:03.438Z,12.00
2018-03-12T18:35:31.017Z,12.00
2018-03-12T18:37:59.155Z,11.90
2018-03-12T18:43:00.711Z,11.90
2018-03-12T18:45:28.307Z,11.90
2018-03-12T18:47:55.960Z,11.90
2018-03-12T18:50:23.637Z,11.80
2018-03-12T18:52:51.357Z,11.80
2018-03-12T18:55:20.008Z,11.80
2018-03-12T18:57:48.552Z,11.80
2018-03-12T19:00:16.333Z,11.80
2018-03-12T19:02:44.236Z,11.80
2018-03-12T19:05:12.160Z,11.80
2018-03-12T19:07:40.001Z,11.80
2018-03-12T19:10:11.173Z,11.80
2018-03-12T19:12:38.750Z,11.80
2018-03-12T19:15:06.286Z,11.70
2018-03-12T19:17:33.825Z,11.70
2018-03-12T19:20:02.119Z,11.70
2018-03-12T19:22:29.601Z,11.60
2018-03-12T19:24:57.142Z,11.60
2018-03-12T19:27:24.617Z,11.50
2018-03-12T19:29:52.116Z,11.50
2018-03-12T19:32:19.642Z,11.50
2018-03-12T19:34:47.255Z,11.40
2018-03-12T19:37:14.862Z,11.40
2018-03-12T19:39:42.387Z,11.30
2018-03-12T19:42:10.093Z,11.20
2018-03-12T19:44:37.877Z,11.20
2018-03-12T19:47:06.317Z,11.10
2018-03-12T19:49:33.890Z,11.10
2018-03-12T19:52:01.456Z,11.10
2018-03-12T19:54:28.943Z,11.10
2018-03-12T19:56:57.198Z,11.10
2018-03-12T19:59:24.673Z,11.10
2018-03-12T20:01:52.170Z,11.00
2018-03-12T20:04:19.651Z,11.00
2018-03-12T20:06:47.961Z,11.00
2018-03-12T20:09:33.147Z,11.00
2018-03-12T20:12:01.523Z,11.00
2018-03-12T20:14:31.528Z,11.00
2018-03-12T20:17:00.729Z,10.90
2018-03-12T20:19:28.287Z,10.90
2018-03-12T20:21:55.819Z,11.00
2018-03-12T20:24:23.645Z,10.90
2018-03-12T20:26:51.409Z,11.00
2018-03-12T20:29:18.903Z,10.90
2018-03-12T20:31:46.424Z,10.90
2018-03-12T20:34:13.985Z,10.90
2018-03-12T20:36:41.518Z,10.80
2018-03-12T20:39:09.823Z,10.80
2018-03-12T20:41:37.289Z,10.80
2018-03-12T20:44:04.850Z,10.80
2018-03-12T20:46:33.182Z,10.80
2018-03-12T20:49:02.215Z,10.80
2018-03-12T20:51:29.814Z,10.80
2018-03-12T20:53:57.274Z,10.80
2018-03-12T20:56:24.780Z,10.80
2018-03-12T20:58:52.284Z,10.80
2018-03-12T21:01:19.813Z,10.70
2018-03-12T21:03:47.329Z,10.70
2018-03-12T21:06:15.078Z,10.70
2018-03-12T21:08:43.364Z,10.70
2018-03-12T21:11:11.713Z,10.70
2018-03-12T21:13:39.275Z,10.70
2018-03-12T21:16:06.958Z,10.70
2018-03-12T21:18:35.199Z,10.70
2018-03-12T21:21:02.710Z,10.70
2018-03-12T21:23:30.171Z,10.70
2018-03-12T21:25:57.723Z,10.70
2018-03-12T21:28:26.040Z,10.70
2018-03-12T21:30:54.085Z,10.70
2018-03-12T21:33:21.706Z,10.70
2018-03-12T21:35:49.412Z,10.70
2018-03-12T21:38:16.920Z,10.60
2018-03-12T21:40:45.250Z,10.70
2018-03-12T21:43:12.921Z,10.60
2018-03-12T21:45:40.815Z,10.60
2018-03-12T21:48:09.287Z,10.60
2018-03-12T21:50:38.163Z,10.50
2018-03-12T21:53:05.736Z,10.50
2018-03-12T21:55:33.706Z,10.50
2018-03-12T21:58:01.249Z,10.40
2018-03-12T22:00:28.732Z,10.40
2018-03-12T22:02:56.294Z,10.40
2018-03-12T22:05:23.770Z,10.40
2018-03-12T22:07:52.140Z,10.40
2018-03-12T22:10:20.430Z,10.40
2018-03-12T22:12:48.700Z,10.40
2018-03-12T22:15:16.248Z,10.40
2018-03-12T22:17:43.725Z,10.40
2018-03-12T22:20:11.979Z,10.40
2018-03-12T22:22:39.453Z,10.40
2018-03-12T22:25:07.737Z,10.40
2018-03-12T22:27:36.099Z,10.40
2018-03-12T22:30:03.644Z,10.40
2018-03-12T22:32:31.225Z,10.40
2018-03-12T22:34:59.798Z,10.40
2018-03-12T22:37:28.133Z,10.40
2018-03-12T22:39:55.795Z,10.40
2018-03-12T22:42:23.850Z,10.40
2018-03-12T22:44:51.423Z,10.30
2018-03-12T22:47:19.078Z,10.20
2018-03-12T22:49:46.561Z,10.20
2018-03-12T22:52:14.034Z,10.10
2018-03-12T22:54:41.492Z,10.10
2018-03-12T22:57:09.079Z,10.00
2018-03-12T22:59:37.337Z,10.00
2018-03-12T23:02:05.617Z,10.00
2018-03-12T23:04:33.853Z,9.90
2018-03-12T23:07:01.409Z,9.90
2018-03-12T23:09:28.869Z,9.90
2018-03-12T23:11:56.344Z,9.90
2018-03-12T23:14:23.806Z,9.90
2018-03-12T23:16:52.813Z,9.90
2018-03-12T23:19:21.848Z,9.90
2018-03-12T23:21:49.332Z,9.90
2018-03-12T23:24:16.804Z,9.90
2018-03-12T23:26:44.274Z,9.90
2018-03-12T23:29:12.525Z,9.90
2018-03-12T23:31:40.109Z,9.90
2018-03-12T23:34:08.333Z,9.90
2018-03-12T23:36:35.788Z,9.90
2018-03-12T23:39:03.413Z,9.90
2018-03-12T23:41:31.665Z,9.90
2018-03-12T23:43:59.927Z,9.90
2018-03-12T23:46:27.389Z,9.90
2018-03-12T23:48:56.365Z,10.00
2018-03-12T23:51:23.837Z,9.90
2018-03-12T23:53:52.069Z,10.00
2018-03-12T23:56:19.537Z,10.00
2018-03-12T23:58:46.993Z,10.00
